Time;durP1;ratioP1;P1;durP2;ratioP2;P2;SDS_P1;SDS_P2;PMS_P1;PMS_P2;Temp;Humidity;BMP_temperature;BMP_pressure;BME280_temperature;BME280_humidity;BME280_pressure;Samples;Min_cycle;Max_cycle;Signal;HPM_P1;HPM_P2
2021/04/06 00:02:08;;;;;;;1.97;1.80;;;4.80;27.90;;;;;;5070684;28;20423;-63
2021/04/06 00:04:40;;;;;;;1.50;1.40;;;4.80;28.40;;;;;;5070455;28;20467;-60
2021/04/06 00:07:09;;;;;;;1.67;1.57;;;5.00;28.00;;;;;;5070115;28;20409;-62
2021/04/06 00:09:37;;;;;;;4.60;2.00;;;5.00;28.80;;;;;;5052717;28;20497;-63
2021/04/06 00:12:05;;;;;;;1.93;1.50;;;5.10;28.20;;;;;;5050448;28;20768;-62
2021/04/06 00:14:32;;;;;;;2.57;2.10;;;5.10;27.90;;;;;;5050092;28;20434;-62
2021/04/06 00:17:00;;;;;;;1.83;1.70;;;4.80;28.70;;;;;;5050180;28;20904;-68
2021/04/06 00:19:29;;;;;;;3.13;1.63;;;5.00;28.40;;;;;;5049830;28;20471;-62
2021/04/06 00:21:58;;;;;;;2.57;2.17;;;5.20;28.00;;;;;;5050213;28;20501;-62
2021/04/06 00:24:26;;;;;;;2.20;1.70;;;4.70;28.60;;;;;;5050032;28;20466;-63
2021/04/06 00:27:11;;;;;;;2.80;1.90;;;4.40;28.70;;;;;;5050168;28;20501;-62
2021/04/06 00:29:38;;;;;;;2.63;1.90;;;4.20;30.50;;;;;;5050027;28;20489;-62
2021/04/06 00:32:06;;;;;;;2.93;2.27;;;4.10;30.30;;;;;;5050188;28;20459;-62
2021/04/06 00:34:33;;;;;;;2.93;2.30;;;4.30;30.30;;;;;;5050043;28;20453;-63
2021/04/06 00:37:04;;;;;;;2.13;1.90;;;4.30;30.50;;;;;;5050652;28;20422;-64
2021/04/06 00:39:36;;;;;;;1.90;1.80;;;4.50;30.40;;;;;;5053626;28;20529;-62
2021/04/06 00:42:12;;;;;;;5.13;1.93;;;4.60;29.70;;;;;;5053760;28;20414;-65
2021/04/06 00:44:52;;;;;;;7.47;2.17;;;4.80;30.00;;;;;;5053518;28;20461;-62
2021/04/06 00:47:27;;;;;;;4.97;2.50;;;4.50;29.90;;;;;;5053143;28;20953;-64
2021/04/06 00:49:55;;;;;;;3.20;2.73;;;4.20;30.20;;;;;;5053514;28;20413;-62
2021/04/06 00:52:22;;;;;;;4.90;2.13;;;4.30;30.40;;;;;;5053546;28;20406;-64
2021/04/06 00:54:56;;;;;;;4.20;2.10;;;4.10;31.50;;;;;;5053345;28;20834;-64
2021/04/06 00:57:27;;;;;;;3.33;2.00;;;4.30;29.70;;;;;;5052898;28;20410;-63
2021/04/06 01:00:17;;;;;;;4.37;2.37;;;4.50;29.20;;;;;;5053338;28;20414;-62
2021/04/06 01:03:03;;;;;;;2.10;1.80;;;4.30;30.00;;;;;;5053272;28;20406;-63
2021/04/06 01:05:31;;;;;;;3.70;2.50;;;4.10;29.90;;;;;;5053486;28;21031;-59
2021/04/06 01:07:57;;;;;;;2.50;1.97;;;3.90;31.40;;;;;;5053064;28;20471;-61
2021/04/06 01:10:27;;;;;;;2.17;1.97;;;4.20;31.30;;;;;;5053445;28;20418;-62
2021/04/06 01:12:54;;;;;;;2.10;2.00;;;4.40;30.80;;;;;;5053343;28;20406;-63
2021/04/06 01:15:22;;;;;;;3.20;2.43;;;4.50;30.90;;;;;;5053172;28;20476;-65
2021/04/06 01:17:48;;;;;;;2.70;2.30;;;4.40;30.30;;;;;;5052693;28;20451;-62
2021/04/06 01:20:16;;;;;;;3.07;2.80;;;4.20;30.20;;;;;;5053171;28;20496;-62
2021/04/06 01:22:43;;;;;;;2.93;2.20;;;4.00;31.80;;;;;;5053198;28;20176;-65
2021/04/06 01:25:19;;;;;;;3.90;1.97;;;4.10;31.30;;;;;;5051506;28;20573;-63
2021/04/06 01:27:45;;;;;;;2.30;2.10;;;4.20;31.10;;;;;;5052398;28;20838;-63
2021/04/06 01:30:12;;;;;;;3.60;2.30;;;4.50;31.20;;;;;;5052789;28;20545;-62
2021/04/06 01:32:38;;;;;;;2.63;2.17;;;4.30;30.00;;;;;;5051580;28;20930;-62
2021/04/06 01:35:07;;;;;;;3.07;1.90;;;4.30;31.10;;;;;;5052601;28;20434;-63
2021/04/06 01:37:33;;;;;;;2.80;2.40;;;4.50;30.20;;;;;;5052135;28;20178;-63
2021/04/06 01:40:00;;;;;;;2.40;2.20;;;4.60;29.80;;;;;;5052512;28;20928;-61
2021/04/06 01:42:30;;;;;;;2.23;1.80;;;4.50;29.60;;;;;;5053598;28;20435;-63
2021/04/06 01:44:58;;;;;;;3.40;2.13;;;4.60;30.00;;;;;;5066581;28;20873;-61
2021/04/06 01:47:26;;;;;;;2.27;2.07;;;4.50;30.20;;;;;;5052018;28;20414;-64
2021/04/06 01:49:52;;;;;;;2.27;2.13;;;4.20;29.20;;;;;;5056161;28;20500;-63
2021/04/06 01:52:18;;;;;;;3.57;2.50;;;4.00;30.40;;;;;;5072364;28;20872;-61
2021/04/06 01:54:50;;;;;;;3.80;2.80;;;4.20;30.70;;;;;;5070943;28;20503;-62
2021/04/06 01:57:21;;;;;;;4.00;2.00;;;4.10;30.00;;;;;;5071820;28;20409;-62
2021/04/06 01:59:54;;;;;;;2.23;2.03;;;4.00;30.20;;;;;;5072192;28;20414;-64
2021/04/06 02:02:25;;;;;;;3.50;2.23;;;4.00;31.20;;;;;;5059204;28;20430;-64
2021/04/06 02:04:58;;;;;;;3.90;2.33;;;3.70;30.80;;;;;;5052242;28;20462;-65
2021/04/06 02:07:28;;;;;;;4.37;2.47;;;3.80;30.40;;;;;;5052022;28;20405;-65
2021/04/06 02:09:55;;;;;;;3.50;2.47;;;3.70;30.00;;;;;;5052806;28;20780;-65
2021/04/06 02:12:22;;;;;;;2.63;2.47;;;3.70;30.40;;;;;;5052502;28;20411;-65
2021/04/06 02:14:56;;;;;;;3.23;2.93;;;3.70;30.40;;;;;;5052330;28;20438;-64
2021/04/06 02:17:22;;;;;;;2.87;2.57;;;3.80;30.50;;;;;;5051880;28;20917;-65
2021/04/06 02:19:47;;;;;;;2.47;2.30;;;3.60;30.70;;;;;;5052205;28;20421;-65
2021/04/06 02:22:19;;;;;;;3.13;2.00;;;3.60;30.50;;;;;;5052133;28;20176;-66
2021/04/06 02:24:53;;;;;;;2.50;2.30;;;3.80;30.00;;;;;;5052260;28;20207;-64
2021/04/06 02:27:23;;;;;;;5.47;2.63;;;3.60;30.60;;;;;;5051600;28;20421;-65
2021/04/06 02:29:58;;;;;;;2.47;2.37;;;3.40;31.10;;;;;;5051870;28;20433;-64
2021/04/06 02:32:25;;;;;;;2.30;2.13;;;3.40;31.20;;;;;;5051992;28;20499;-63
2021/04/06 02:34:56;;;;;;;5.20;2.23;;;3.50;30.90;;;;;;5051770;28;20803;-64
2021/04/06 02:37:24;;;;;;;4.37;2.50;;;3.50;30.80;;;;;;5051246;28;20407;-63
2021/04/06 02:39:52;;;;;;;2.17;2.00;;;3.70;30.70;;;;;;5051613;28;20458;-64
2021/04/06 02:42:18;;;;;;;2.63;2.43;;;3.60;29.70;;;;;;5051478;28;20417;-65
2021/04/06 02:44:44;;;;;;;3.00;2.43;;;3.50;30.20;;;;;;5051445;28;20468;-63
2021/04/06 02:47:10;;;;;;;2.70;2.47;;;3.30;30.70;;;;;;5051324;28;20437;-63
2021/04/06 02:49:36;;;;;;;2.77;2.40;;;2.80;31.70;;;;;;5050407;28;20491;-63
2021/04/06 02:52:02;;;;;;;2.07;1.97;;;3.10;31.90;;;;;;5051668;28;20418;-63
2021/04/06 02:54:28;;;;;;;2.77;2.43;;;3.10;30.80;;;;;;5051504;28;20196;-65
2021/04/06 02:56:54;;;;;;;2.50;2.30;;;2.70;31.70;;;;;;5051487;28;20441;-64
2021/04/06 02:59:21;;;;;;;3.70;2.70;;;2.70;32.00;;;;;;5050445;28;20259;-66
2021/04/06 03:01:49;;;;;;;3.40;2.60;;;3.00;31.80;;;;;;5050939;28;20429;-64
2021/04/06 03:04:22;;;;;;;2.73;2.53;;;2.90;31.40;;;;;;5051045;28;20469;-64
2021/04/06 03:06:50;;;;;;;2.40;2.20;;;2.80;31.70;;;;;;5051173;28;21024;-64
2021/04/06 03:09:17;;;;;;;2.27;2.10;;;3.10;31.80;;;;;;5050484;28;20940;-63
2021/04/06 03:11:51;;;;;;;2.50;2.40;;;3.20;31.00;;;;;;5051230;28;20497;-64
2021/04/06 03:14:19;;;;;;;2.23;2.03;;;3.10;31.90;;;;;;5051126;28;20526;-63
2021/04/06 03:16:48;;;;;;;2.60;2.13;;;3.30;31.60;;;;;;5051073;28;20942;-64
2021/04/06 03:19:13;;;;;;;3.73;2.90;;;3.10;30.10;;;;;;5050570;28;20418;-65
2021/04/06 03:21:39;;;;;;;7.23;2.37;;;3.00;30.80;;;;;;5051065;28;20414;-66
2021/04/06 03:24:05;;;;;;;3.27;2.40;;;3.10;30.70;;;;;;5050876;28;20282;-65
2021/04/06 03:26:31;;;;;;;3.23;2.50;;;3.10;30.90;;;;;;5050943;28;20172;-65
2021/04/06 03:29:02;;;;;;;2.93;2.60;;;3.00;31.70;;;;;;5050354;28;20452;-65
2021/04/06 03:31:32;;;;;;;2.90;2.70;;;3.30;31.00;;;;;;5050711;28;20425;-64
2021/04/06 03:33:59;;;;;;;2.33;2.20;;;3.10;30.40;;;;;;5050747;28;20468;-66
2021/04/06 03:36:27;;;;;;;4.37;2.80;;;3.00;30.80;;;;;;5050725;28;20460;-64
2021/04/06 03:38:58;;;;;;;2.20;2.10;;;3.10;30.80;;;;;;5049883;28;20433;-64
2021/04/06 03:41:26;;;;;;;2.60;2.40;;;3.30;30.20;;;;;;5050667;28;20410;-63
2021/04/06 03:43:53;;;;;;;2.50;2.30;;;3.30;30.00;;;;;;5050561;28;20489;-64
2021/04/06 03:46:24;;;;;;;2.90;2.30;;;3.50;30.80;;;;;;5050605;28;20417;-66
2021/04/06 03:48:51;;;;;;;2.90;2.50;;;3.50;29.60;;;;;;5050151;28;20785;-65
2021/04/06 03:51:29;;;;;;;2.60;2.40;;;3.60;30.00;;;;;;5053568;28;20430;-65
2021/04/06 03:53:56;;;;;;;4.63;2.63;;;3.60;28.80;;;;;;5057214;28;20813;-65
2021/04/06 03:56:32;;;;;;;4.07;2.83;;;3.50;28.90;;;;;;5049379;28;20842;-63
2021/04/06 03:59:09;;;;;;;4.10;2.50;;;3.30;29.50;;;;;;5050296;28;20445;-64
2021/04/06 04:01:39;;;;;;;2.30;2.13;;;3.70;30.30;;;;;;5070807;28;20445;-65
2021/04/06 04:04:05;;;;;;;3.47;2.30;;;3.90;30.00;;;;;;5070351;28;20500;-63
2021/04/06 04:06:31;;;;;;;4.20;2.40;;;3.80;28.50;;;;;;5069432;28;20840;-65
2021/04/06 04:08:57;;;;;;;3.33;2.23;;;3.90;28.40;;;;;;5069786;28;20175;-64
2021/04/06 04:11:23;;;;;;;3.23;2.93;;;3.70;28.00;;;;;;5070798;28;20409;-65
2021/04/06 04:13:49;;;;;;;3.97;2.60;;;3.70;28.40;;;;;;5074247;28;20199;-65
2021/04/06 04:16:16;;;;;;;5.60;3.00;;;3.70;29.00;;;;;;5073802;28;20900;-65
2021/04/06 04:18:41;;;;;;;5.93;2.80;;;3.50;29.20;;;;;;5073537;28;20413;-63
2021/04/06 04:21:10;;;;;;;2.90;2.37;;;3.60;29.30;;;;;;5074337;28;20428;-65
2021/04/06 04:23:36;;;;;;;6.97;3.47;;;3.30;29.80;;;;;;5074403;28;20222;-65
2021/04/06 04:26:03;;;;;;;3.43;3.13;;;3.50;30.30;;;;;;5074049;28;20405;-65
2021/04/06 04:28:28;;;;;;;2.80;2.60;;;3.60;30.10;;;;;;5073518;28;21069;-65
2021/04/06 04:30:54;;;;;;;5.80;2.70;;;3.60;30.10;;;;;;5073662;28;20425;-63
2021/04/06 04:33:20;;;;;;;3.80;2.93;;;3.90;29.50;;;;;;5073785;28;20183;-65
2021/04/06 04:35:45;;;;;;;3.03;2.60;;;4.00;29.30;;;;;;5072115;28;20228;-66
2021/04/06 04:38:11;;;;;;;3.23;3.00;;;3.80;30.10;;;;;;5073336;28;20429;-64
2021/04/06 04:40:40;;;;;;;4.27;2.70;;;4.00;29.50;;;;;;5060815;28;20588;-64
2021/04/06 04:43:06;;;;;;;3.30;3.00;;;3.90;29.60;;;;;;5053582;28;20783;-65
2021/04/06 04:45:31;;;;;;;4.63;2.90;;;3.80;29.60;;;;;;5053576;28;20507;-65
2021/04/06 04:47:57;;;;;;;3.90;3.00;;;4.00;29.20;;;;;;5072036;28;20194;-64
2021/04/06 04:50:23;;;;;;;4.13;3.20;;;3.60;29.90;;;;;;5073838;28;20175;-66
2021/04/06 04:52:50;;;;;;;4.20;3.60;;;3.60;30.50;;;;;;5073226;28;20168;-66
2021/04/06 04:55:18;;;;;;;4.20;3.10;;;3.80;30.50;;;;;;5075023;28;20416;-64
2021/04/06 04:57:44;;;;;;;4.90;3.50;;;3.80;29.20;;;;;;5075034;28;20908;-63
2021/04/06 05:00:11;;;;;;;3.43;3.23;;;3.80;29.80;;;;;;5068443;28;20410;-64
2021/04/06 05:02:37;;;;;;;5.77;4.50;;;3.80;29.80;;;;;;5073003;28;20439;-65
2021/04/06 05:05:04;;;;;;;3.70;2.97;;;3.60;29.70;;;;;;5079057;28;20461;-64
2021/04/06 05:07:30;;;;;;;4.07;3.33;;;3.50;30.10;;;;;;5073994;28;20418;-63
2021/04/06 05:09:56;;;;;;;3.70;3.40;;;3.40;30.60;;;;;;5074347;28;20409;-65
2021/04/06 05:12:21;;;;;;;3.50;3.10;;;3.70;30.00;;;;;;5074133;28;20167;-65
2021/04/06 05:14:47;;;;;;;5.60;4.27;;;3.80;30.00;;;;;;5066292;28;20199;-66
2021/04/06 05:17:14;;;;;;;3.47;3.10;;;3.80;30.10;;;;;;5071435;28;20217;-66
2021/04/06 05:19:39;;;;;;;3.50;3.20;;;3.60;30.60;;;;;;5066189;28;20491;-65
2021/04/06 05:22:05;;;;;;;3.47;3.17;;;3.40;31.60;;;;;;5058416;28;20827;-64
2021/04/06 05:24:34;;;;;;;3.53;3.27;;;3.60;31.40;;;;;;5062901;28;20207;-65
2021/04/06 05:26:59;;;;;;;3.60;3.30;;;3.30;31.20;;;;;;5060568;28;20421;-63
2021/04/06 05:29:25;;;;;;;6.40;4.20;;;3.20;32.40;;;;;;5070451;28;20436;-62
2021/04/06 05:31:50;;;;;;;3.43;3.10;;;3.30;31.40;;;;;;5068142;28;20176;-63
2021/04/06 05:34:16;;;;;;;7.37;3.90;;;3.10;31.90;;;;;;5058049;28;20564;-63
2021/04/06 05:36:42;;;;;;;5.77;3.50;;;3.30;32.10;;;;;;5063097;28;20217;-64
2021/04/06 05:39:08;;;;;;;5.70;3.67;;;3.40;31.80;;;;;;5060868;28;20715;-65
2021/04/06 05:41:34;;;;;;;11.00;4.17;;;3.40;31.80;;;;;;5073537;28;20413;-63
2021/04/06 05:44:03;;;;;;;12.90;3.83;;;3.60;32.70;;;;;;5069922;28;20223;-65
2021/04/06 05:46:34;;;;;;;5.73;3.30;;;3.50;31.30;;;;;;5051780;28;20494;-64
2021/04/06 05:49:03;;;;;;;6.10;3.13;;;3.70;31.70;;;;;;5050946;28;20506;-64
2021/04/06 05:51:29;;;;;;;4.40;2.70;;;3.70;32.60;;;;;;5052414;28;20425;-64
2021/04/06 05:53:55;;;;;;;12.30;4.70;;;3.50;32.20;;;;;;5052358;28;20837;-65
2021/04/06 05:56:20;;;;;;;6.20;4.20;;;6.00;67.00;;;;;;5051840;28;20779;-64
2021/04/06 05:58:46;;;;;;;7.20;3.40;;;9.70;50.80;;;;;;5055702;28;20425;-65
2021/04/06 06:01:12;;;;;;;7.57;3.77;;;7.30;26.40;;;;;;5055831;28;20419;-66
2021/04/06 06:03:38;;;;;;;3.13;2.77;;;8.60;42.50;;;;;;5070331;28;20207;-65
2021/04/06 06:06:04;;;;;;;8.67;4.40;;;6.80;24.60;;;;;;5071044;28;20539;-66
2021/04/06 06:08:30;;;;;;;3.17;2.97;;;5.90;26.80;;;;;;5053656;28;20426;-64
2021/04/06 06:11:06;;;;;;;7.20;3.23;;;5.50;27.40;;;;;;5052281;28;20183;-65
2021/04/06 06:13:35;;;;;;;7.73;3.20;;;5.30;28.00;;;;;;5071753;28;20496;-63
2021/04/06 06:16:16;;;;;;;7.40;3.80;;;5.00;29.10;;;;;;5064890;28;20462;-64
2021/04/06 06:19:10;;;;;;;5.23;4.27;;;4.70;29.40;;;;;;5043457;28;20434;-63
2021/04/06 06:21:49;;;;;;;10.63;3.60;;;4.30;29.80;;;;;;5035254;28;20439;-64
2021/04/06 06:24:26;;;;;;;3.10;2.80;;;4.50;30.40;;;;;;5053501;28;20449;-62
2021/04/06 06:26:52;;;;;;;5.10;3.13;;;4.50;29.80;;;;;;5035495;28;20453;-65
2021/04/06 06:29:22;;;;;;;3.27;3.07;;;4.50;29.70;;;;;;5032632;28;20469;-62
2021/04/06 06:31:50;;;;;;;5.00;3.33;;;4.50;30.10;;;;;;5036120;28;21148;-63
2021/04/06 06:34:42;;;;;;;4.90;3.90;;;4.30;31.00;;;;;;5044987;28;20494;-61
2021/04/06 06:37:17;;;;;;;4.00;3.33;;;4.40;30.90;;;;;;5033983;28;20446;-61
2021/04/06 06:39:54;;;;;;;4.60;3.20;;;4.20;31.10;;;;;;5048925;28;20564;-64
2021/04/06 06:42:41;;;;;;;3.43;3.13;;;4.30;31.30;;;;;;5043005;28;20450;-65
2021/04/06 06:45:22;;;;;;;4.00;3.67;;;4.50;31.00;;;;;;5038391;28;20603;-64
2021/04/06 06:47:55;;;;;;;3.70;3.33;;;4.50;31.00;;;;;;5041263;28;20462;-68
2021/04/06 06:50:21;;;;;;;3.63;3.30;;;4.50;30.40;;;;;;5054630;28;20473;-64
2021/04/06 06:52:55;;;;;;;3.30;3.00;;;4.50;31.10;;;;;;5053857;28;20449;-65
2021/04/06 06:55:24;;;;;;;8.20;3.13;;;4.50;30.10;;;;;;5055991;28;20719;-65
2021/04/06 06:57:50;;;;;;;3.30;3.00;;;4.50;30.30;;;;;;5055640;28;20449;-68
2021/04/06 07:00:20;;;;;;;2.90;2.70;;;4.40;30.80;;;;;;5047803;28;20465;-68
2021/04/06 07:02:46;;;;;;;5.10;3.57;;;4.60;30.50;;;;;;5037185;28;20858;-68
2021/04/06 07:05:14;;;;;;;4.13;3.77;;;4.40;31.10;;;;;;5049163;28;20466;-68
2021/04/06 07:08:03;;;;;;;4.33;3.30;;;4.20;31.20;;;;;;5052954;28;20449;-63
2021/04/06 07:10:39;;;;;;;4.83;3.40;;;4.40;31.00;;;;;;5036494;28;20537;-65
2021/04/06 07:13:07;;;;;;;5.83;3.07;;;4.20;31.60;;;;;;5034405;28;20818;-66
2021/04/06 07:15:38;;;;;;;4.90;3.93;;;4.30;31.40;;;;;;5032807;28;21169;-64
2021/04/06 07:18:16;;;;;;;3.73;3.43;;;4.50;31.30;;;;;;5034554;28;20465;-64
2021/04/06 07:20:45;;;;;;;5.83;3.07;;;4.30;30.90;;;;;;5050627;28;20572;-66
2021/04/06 07:23:29;;;;;;;4.77;3.30;;;4.10;31.70;;;;;;5038718;28;20489;-67
2021/04/06 07:25:55;;;;;;;5.60;3.20;;;4.10;31.70;;;;;;5034427;28;20442;-67
2021/04/06 07:28:21;;;;;;;6.30;3.63;;;4.10;32.40;;;;;;5047143;28;20442;-66
2021/04/06 07:30:48;;;;;;;10.07;3.03;;;3.90;32.20;;;;;;5051693;28;20230;-65
2021/04/06 07:33:15;;;;;;;6.53;5.40;;;4.20;32.10;;;;;;5054504;28;20449;-66
2021/04/06 07:35:42;;;;;;;7.10;3.37;;;4.30;32.70;;;;;;5055509;28;20441;-62
2021/04/06 07:38:07;;;;;;;11.70;3.83;;;4.50;31.80;;;;;;5053962;28;20884;-67
2021/04/06 07:40:34;;;;;;;4.67;2.87;;;4.60;31.60;;;;;;5035477;28;20478;-68
2021/04/06 07:43:04;;;;;;;4.20;3.10;;;4.70;31.40;;;;;;5040823;28;20281;-74
2021/04/06 07:45:30;;;;;;;4.77;4.13;;;4.90;30.70;;;;;;5054216;28;20457;-68
2021/04/06 07:47:56;;;;;;;5.73;3.60;;;5.30;30.50;;;;;;5061666;28;20445;-66
2021/04/06 07:50:41;;;;;;;5.73;3.87;;;5.30;30.00;;;;;;5061893;28;20219;-68
2021/04/06 07:53:20;;;;;;;3.90;3.37;;;5.40;31.00;;;;;;5059986;28;20456;-71
2021/04/06 07:55:46;;;;;;;4.93;3.07;;;5.40;29.70;;;;;;5061343;28;20441;-64
2021/04/06 07:58:45;;;;;;;4.20;3.33;;;5.50;29.90;;;;;;5060709;28;20437;-66
2021/04/06 08:01:12;;;;;;;4.80;3.70;;;5.50;29.50;;;;;;5058503;28;20453;-64
2021/04/06 08:04:00;;;;;;;3.27;2.97;;;5.40;29.60;;;;;;5061536;28;20518;-64
2021/04/06 08:06:40;;;;;;;4.70;3.40;;;5.20;29.70;;;;;;5059394;28;20816;-65
2021/04/06 08:09:27;;;;;;;3.77;2.73;;;5.30;29.70;;;;;;5060749;28;20452;-69
2021/04/06 08:12:11;;;;;;;4.80;3.30;;;5.10;29.90;;;;;;5061521;28;20437;-69
2021/04/06 08:14:44;;;;;;;6.10;3.47;;;5.00;30.70;;;;;;5059353;28;20444;-65
2021/04/06 08:17:27;;;;;;;3.83;3.20;;;5.00;31.00;;;;;;5060164;28;20436;-66
2021/04/06 08:19:54;;;;;;;8.33;3.03;;;5.20;31.10;;;;;;5060271;28;20437;-65
2021/04/06 08:22:29;;;;;;;6.33;3.33;;;5.30;30.00;;;;;;5057827;28;20456;-64
2021/04/06 08:25:18;;;;;;;3.90;2.80;;;5.40;29.70;;;;;;5061160;28;20460;-64
2021/04/06 08:27:49;;;;;;;9.10;4.20;;;5.30;29.80;;;;;;5054056;28;20446;-67
2021/04/06 08:30:26;;;;;;;6.37;4.30;;;5.20;30.80;;;;;;5060227;28;20583;-70
2021/04/06 08:32:58;;;;;;;8.47;5.97;;;5.60;30.30;;;;;;5059240;28;20714;-65
2021/04/06 08:35:45;;;;;;;8.93;4.20;;;5.70;29.30;;;;;;5060379;28;20559;-72
2021/04/06 08:38:20;;;;;;;3.57;3.10;;;5.70;29.30;;;;;;5060037;28;20460;-70
2021/04/06 08:40:48;;;;;;;9.70;3.63;;;5.70;29.30;;;;;;5060121;28;20476;-71
2021/04/06 08:43:17;;;;;;;11.67;7.47;;;5.70;29.80;;;;;;5060651;28;20445;-65
2021/04/06 08:45:56;;;;;;;8.10;4.60;;;5.70;30.40;;;;;;5061036;28;20445;-64
2021/04/06 08:48:43;;;;;;;4.73;3.70;;;6.00;29.80;;;;;;5060499;28;20452;-64
2021/04/06 08:51:27;;;;;;;6.50;3.70;;;5.70;29.30;;;;;;5049711;28;20479;-63
2021/04/06 08:54:01;;;;;;;7.60;3.30;;;5.50;29.90;;;;;;5041819;28;20460;-65
2021/04/06 08:56:35;;;;;;;5.33;3.40;;;5.70;29.90;;;;;;5037473;28;20489;-70
2021/04/06 08:59:16;;;;;;;4.80;2.70;;;5.90;29.40;;;;;;5046265;28;20441;-66
2021/04/06 09:01:53;;;;;;;4.83;2.60;;;5.80;29.30;;;;;;5043491;28;20515;-66
2021/04/06 09:04:21;;;;;;;2.90;2.70;;;6.00;29.50;;;;;;5054503;28;20467;-64
2021/04/06 09:06:48;;;;;;;4.27;2.80;;;6.00;29.40;;;;;;5040001;28;20541;-71
2021/04/06 09:09:30;;;;;;;3.27;2.70;;;6.10;29.50;;;;;;5036756;28;20442;-66
2021/04/06 09:12:00;;;;;;;3.33;3.00;;;6.00;29.00;;;;;;5042502;28;20445;-64
2021/04/06 09:14:30;;;;;;;7.00;3.57;;;6.10;29.30;;;;;;5055702;28;20854;-66
2021/04/06 09:16:55;;;;;;;5.20;3.33;;;6.00;28.50;;;;;;5055985;28;20445;-63
2021/04/06 09:19:23;;;;;;;2.40;2.27;;;5.70;29.30;;;;;;5056883;28;20538;-64
2021/04/06 09:21:51;;;;;;;6.43;2.80;;;5.60;29.20;;;;;;5041026;28;20730;-65
2021/04/06 09:24:19;;;;;;;4.57;2.87;;;5.70;29.80;;;;;;5043988;28;20478;-66
2021/04/06 09:26:46;;;;;;;8.33;3.43;;;5.80;29.30;;;;;;5035395;28;20448;-65
2021/04/06 09:29:21;;;;;;;3.47;3.00;;;5.90;29.50;;;;;;5038899;28;20470;-66
2021/04/06 09:31:50;;;;;;;3.27;3.00;;;5.80;29.30;;;;;;5057748;28;20518;-65
2021/04/06 09:34:22;;;;;;;6.53;3.40;;;5.70;29.30;;;;;;5055354;28;20450;-67
2021/04/06 09:37:00;;;;;;;6.27;3.50;;;5.80;29.30;;;;;;5055689;28;20499;-64
2021/04/06 09:39:27;;;;;;;4.37;2.70;;;5.40;29.80;;;;;;5056519;28;20457;-65
2021/04/06 09:41:53;;;;;;;7.23;3.30;;;5.10;30.20;;;;;;5054588;28;20896;-66
2021/04/06 09:44:22;;;;;;;2.77;2.57;;;5.10;30.70;;;;;;5037211;28;20498;-65
2021/04/06 09:46:50;;;;;;;3.23;2.93;;;5.10;30.50;;;;;;5034667;28;21241;-63
2021/04/06 09:49:17;;;;;;;2.73;2.23;;;5.30;31.00;;;;;;5034953;28;20457;-66
2021/04/06 09:51:53;;;;;;;7.20;3.43;;;5.50;31.00;;;;;;5036665;28;20536;-64
2021/04/06 09:54:26;;;;;;;2.73;2.53;;;5.90;29.40;;;;;;5037016;28;20465;-65
2021/04/06 09:56:53;;;;;;;5.53;2.80;;;5.80;29.30;;;;;;5035305;28;20458;-68
2021/04/06 09:59:19;;;;;;;2.77;2.57;;;5.90;29.30;;;;;;5054871;28;20822;-65
2021/04/06 10:01:53;;;;;;;5.77;2.43;;;6.00;28.50;;;;;;5056668;28;20453;-66
2021/04/06 10:04:32;;;;;;;3.93;2.60;;;5.60;28.40;;;;;;5053751;28;20489;-65
2021/04/06 10:07:10;;;;;;;2.43;2.27;;;5.70;28.90;;;;;;5056897;28;20456;-66
2021/04/06 10:09:41;;;;;;;4.83;3.00;;;5.70;29.30;;;;;;5045494;28;20450;-64
2021/04/06 10:12:09;;;;;;;3.10;2.90;;;5.40;28.80;;;;;;5035377;28;20454;-64
2021/04/06 10:14:35;;;;;;;3.90;2.50;;;5.20;28.90;;;;;;5046674;28;20536;-66
2021/04/06 10:17:06;;;;;;;3.60;2.67;;;5.20;29.40;;;;;;5055997;28;21192;-64
2021/04/06 10:19:33;;;;;;;5.37;2.80;;;5.30;29.60;;;;;;5055809;28;20449;-65
2021/04/06 10:22:13;;;;;;;2.80;2.30;;;5.40;29.10;;;;;;5055390;28;20480;-67
2021/04/06 10:24:45;;;;;;;4.23;2.53;;;5.40;29.10;;;;;;5055476;28;20473;-65
2021/04/06 10:27:16;;;;;;;3.10;2.80;;;5.40;28.90;;;;;;5054919;28;20460;-65
2021/04/06 10:29:42;;;;;;;3.47;2.80;;;5.60;28.60;;;;;;5056350;28;20442;-65
2021/04/06 10:32:24;;;;;;;2.90;2.63;;;5.80;27.80;;;;;;5055934;28;20518;-68
2021/04/06 10:35:02;;;;;;;2.97;2.50;;;5.50;29.10;;;;;;5054295;28;20460;-66
2021/04/06 10:37:48;;;;;;;3.30;3.00;;;5.40;27.10;;;;;;5054984;28;20560;-64
2021/04/06 10:40:27;;;;;;;2.50;2.30;;;5.30;26.80;;;;;;5054238;28;20449;-65
2021/04/06 10:42:57;;;;;;;4.17;2.47;;;5.20;27.50;;;;;;5053833;28;20532;-66
2021/04/06 10:45:24;;;;;;;3.37;2.63;;;5.40;27.80;;;;;;5055565;28;20497;-66
2021/04/06 10:47:52;;;;;;;3.00;2.70;;;5.70;27.50;;;;;;5055301;28;20445;-64
2021/04/06 10:50:27;;;;;;;3.30;2.37;;;6.10;27.50;;;;;;5054982;28;20459;-69
2021/04/06 10:52:53;;;;;;;6.00;2.27;;;6.10;26.80;;;;;;5054211;28;20463;-66
2021/04/06 10:55:18;;;;;;;4.20;2.43;;;6.00;25.90;;;;;;5055353;28;20823;-65
2021/04/06 10:57:51;;;;;;;3.23;2.80;;;6.20;26.60;;;;;;5054090;28;20235;-66
2021/04/06 11:00:25;;;;;;;3.10;2.57;;;5.90;27.00;;;;;;5056379;28;20242;-66
2021/04/06 11:03:10;;;;;;;6.73;2.93;;;6.10;26.60;;;;;;5054178;28;20786;-67
2021/04/06 11:05:38;;;;;;;7.87;3.50;;;6.20;26.90;;;;;;5054451;28;21020;-66
2021/04/06 11:08:25;;;;;;;4.60;2.50;;;6.40;25.60;;;;;;5055041;28;20449;-64
2021/04/06 11:10:56;;;;;;;5.90;2.73;;;6.30;26.20;;;;;;5055352;28;20948;-64
2021/04/06 11:13:23;;;;;;;6.30;2.73;;;6.30;25.70;;;;;;5054683;28;20533;-66
2021/04/06 11:15:49;;;;;;;8.33;3.60;;;6.50;26.40;;;;;;5054555;28;20506;-66
2021/04/06 11:18:15;;;;;;;5.23;3.40;;;6.10;26.00;;;;;;5053736;28;20518;-63
2021/04/06 11:20:41;;;;;;;3.20;2.80;;;6.00;26.30;;;;;;5054692;28;20913;-64
2021/04/06 11:23:07;;;;;;;2.60;2.40;;;6.00;26.30;;;;;;5055094;28;20483;-65
2021/04/06 11:25:33;;;;;;;2.60;2.40;;;5.90;25.20;;;;;;5054728;28;20971;-64
2021/04/06 11:27:59;;;;;;;5.50;2.97;;;6.10;24.50;;;;;;5055119;28;20518;-65
2021/04/06 11:30:32;;;;;;;4.60;2.97;;;6.50;25.20;;;;;;5054076;28;20230;-64
2021/04/06 11:33:01;;;;;;;3.07;2.33;;;6.40;24.00;;;;;;5054329;28;20541;-65
2021/04/06 11:35:27;;;;;;;9.20;2.50;;;6.40;22.20;;;;;;5054380;28;20863;-68
2021/04/06 11:37:53;;;;;;;3.77;2.50;;;6.50;23.10;;;;;;5054253;28;20481;-65
2021/04/06 11:40:19;;;;;;;2.60;2.40;;;6.50;24.20;;;;;;5053924;28;20512;-66
2021/04/06 11:42:45;;;;;;;6.70;2.50;;;6.40;24.40;;;;;;5054925;28;20260;-66
2021/04/06 11:45:11;;;;;;;4.43;3.07;;;6.40;24.70;;;;;;5038763;28;20466;-65
2021/04/06 11:47:37;;;;;;;4.03;2.90;;;6.50;23.80;;;;;;5053378;28;20314;-67
2021/04/06 11:50:06;;;;;;;3.60;2.70;;;6.30;23.70;;;;;;5041243;28;21068;-65
2021/04/06 11:52:32;;;;;;;2.70;2.50;;;6.40;23.80;;;;;;5033561;28;20261;-67
2021/04/06 11:54:58;;;;;;;3.60;3.30;;;6.30;23.60;;;;;;5051218;28;20463;-67
2021/04/06 11:57:24;;;;;;;5.23;2.70;;;6.50;23.90;;;;;;5053723;28;20473;-64
2021/04/06 11:59:52;;;;;;;5.47;3.00;;;6.40;23.80;;;;;;5054914;28;20488;-65
2021/04/06 12:02:18;;;;;;;2.90;2.43;;;6.20;23.90;;;;;;5054622;28;20223;-67
2021/04/06 12:04:43;;;;;;;3.87;2.53;;;5.90;23.20;;;;;;5054437;28;20487;-66
2021/04/06 12:07:09;;;;;;;2.50;2.30;;;6.00;23.00;;;;;;5045889;28;21047;-64
2021/04/06 12:09:34;;;;;;;5.10;2.70;;;6.30;23.20;;;;;;5046331;28;20232;-66
2021/04/06 12:12:01;;;;;;;2.20;1.97;;;6.10;23.20;;;;;;5032745;28;20225;-64
2021/04/06 12:14:27;;;;;;;2.60;2.40;;;6.50;23.30;;;;;;5035676;28;20251;-68
2021/04/06 12:16:53;;;;;;;2.90;2.70;;;6.60;23.10;;;;;;5042611;28;21288;-70
2021/04/06 12:19:18;;;;;;;4.23;2.67;;;6.60;23.40;;;;;;5043069;28;20246;-64
2021/04/06 12:21:44;;;;;;;5.87;2.53;;;6.80;23.00;;;;;;5044374;28;20248;-66
2021/04/06 12:24:10;;;;;;;3.37;2.60;;;7.00;22.00;;;;;;5043517;28;20272;-66
2021/04/06 12:26:36;;;;;;;2.77;2.47;;;7.10;22.40;;;;;;5042221;28;20302;-70
2021/04/06 12:29:02;;;;;;;3.07;2.77;;;7.20;21.80;;;;;;5043023;28;20449;-65
2021/04/06 12:31:28;;;;;;;4.53;2.83;;;7.20;20.70;;;;;;5043693;28;20646;-66
2021/04/06 12:33:53;;;;;;;2.40;2.30;;;7.30;20.90;;;;;;5045262;28;20453;-64
2021/04/06 12:36:21;;;;;;;4.43;2.63;;;7.10;20.20;;;;;;5046735;28;20303;-63
2021/04/06 12:38:47;;;;;;;3.57;3.27;;;7.10;20.30;;;;;;5043783;28;20330;-67
2021/04/06 12:41:12;;;;;;;3.63;3.00;;;7.10;20.30;;;;;;5045250;28;20450;-68
2021/04/06 12:43:38;;;;;;;8.03;4.37;;;7.20;19.90;;;;;;5047696;28;20384;-65
2021/04/06 12:46:03;;;;;;;5.50;3.30;;;7.30;19.80;;;;;;5050224;28;20275;-67
2021/04/06 12:48:29;;;;;;;2.40;2.20;;;7.20;20.90;;;;;;5044406;28;20323;-65
2021/04/06 12:50:55;;;;;;;3.43;2.37;;;7.30;19.90;;;;;;5045560;28;20269;-66
2021/04/06 12:53:21;;;;;;;4.77;3.67;;;7.50;19.60;;;;;;5047433;28;20510;-66
2021/04/06 12:55:47;;;;;;;2.17;2.00;;;7.60;19.40;;;;;;5045113;28;20645;-67
2021/04/06 12:58:12;;;;;;;3.30;2.70;;;7.50;18.30;;;;;;5048277;28;20269;-66
2021/04/06 13:00:38;;;;;;;2.63;2.23;;;7.60;18.50;;;;;;5057938;28;20340;-66
2021/04/06 13:03:04;;;;;;;2.87;2.60;;;7.40;17.80;;;;;;5055519;28;21001;-65
2021/04/06 13:05:29;;;;;;;3.57;2.50;;;7.50;18.00;;;;;;5057163;28;20273;-69
2021/04/06 13:07:55;;;;;;;4.13;3.73;;;7.50;17.50;;;;;;5057021;28;20871;-68
2021/04/06 13:10:22;;;;;;;5.33;2.73;;;7.60;18.10;;;;;;5056874;28;20333;-67
2021/04/06 13:12:49;;;;;;;5.13;2.53;;;7.70;18.00;;;;;;5058112;28;20711;-66